Time;durP1;ratioP1;P1;durP2;ratioP2;P2;SDS_P1;SDS_P2;PMS_P1;PMS_P2;Temp;Humidity;BMP_temperature;BMP_pressure;BME280_temperature;BME280_humidity;BME280_pressure;Samples;Min_cycle;Max_cycle;Signal;HPM_P1;HPM_P2
2022/12/18 00:02:57;;;;;;;9.93;9.02;;;;;;;-8.01;100.00;102482.63;10536109;28;20104;-70
2022/12/18 00:07:59;;;;;;;10.43;9.40;;;;;;;-8.18;100.00;102485.78;10536516;28;20157;-72
2022/12/18 00:13:02;;;;;;;18.13;10.52;;;;;;;-8.29;100.00;102487.66;10533634;28;20179;-71
2022/12/18 00:18:04;;;;;;;8.95;8.20;;;;;;;-8.13;100.00;102484.41;10535961;28;20075;-71
2022/12/18 00:23:07;;;;;;;11.70;8.18;;;;;;;-8.30;100.00;102473.22;10535695;28;20421;-70
2022/12/18 00:28:13;;;;;;;10.85;9.02;;;;;;;-8.41;100.00;102464.97;10535670;28;20085;-70
2022/12/18 00:33:14;;;;;;;8.73;8.02;;;;;;;-8.42;100.00;102445.50;10535846;28;20105;-70
2022/12/18 00:38:16;;;;;;;10.88;8.20;;;;;;;-7.79;100.00;102439.94;10535184;28;20079;-70
2022/12/18 00:43:19;;;;;;;9.75;8.43;;;;;;;-7.63;100.00;102445.13;10533419;28;20084;-72
2022/12/18 00:48:21;;;;;;;14.52;7.88;;;;;;;-7.67;100.00;102443.19;10535127;28;20526;-70
2022/12/18 00:53:24;;;;;;;;;;;;;;;-7.77;100.00;102443.47;10535637;28;20081;-70
2022/12/18 00:58:27;;;;;;;9.40;7.68;;;;;;;-7.94;100.00;102437.38;10535164;28;19958;-72
2022/12/18 01:03:29;;;;;;;9.48;6.78;;;;;;;-8.07;100.00;102444.25;10534684;28;20099;-70
2022/12/18 01:08:31;;;;;;;8.60;7.78;;;;;;;-8.22;100.00;102443.31;10535695;28;20135;-71
2022/12/18 01:13:34;;;;;;;11.80;8.75;;;;;;;-8.15;100.00;102461.50;10533339;28;20078;-70
2022/12/18 01:18:36;;;;;;;9.13;8.27;;;;;;;-8.05;100.00;102467.13;10534770;28;20077;-70
2022/12/18 01:23:38;;;;;;;8.60;7.82;;;;;;;-7.67;100.00;102466.00;10534482;28;20081;-71
2022/12/18 01:28:41;;;;;;;;;;;;;;;-7.59;100.00;102463.94;10542041;28;20098;-70
2022/12/18 01:33:44;;;;;;;11.52;8.02;;;;;;;-7.71;100.00;102463.19;10541862;28;20012;-71
2022/12/18 01:38:46;;;;;;;9.93;8.95;;;;;;;-7.77;100.00;102458.66;10541500;28;20111;-70
2022/12/18 01:43:54;;;;;;;9.90;8.90;;;;;;;-7.82;100.00;102455.84;10539360;28;20130;-70
2022/12/18 01:49:00;;;;;;;9.63;7.97;;;;;;;-7.93;100.00;102457.75;10541700;28;20072;-70
2022/12/18 01:54:02;;;;;;;10.02;8.45;;;;;;;-7.84;100.00;102452.34;10541040;28;20488;-71
2022/12/18 01:59:11;;;;;;;8.13;7.28;;;;;;;-7.77;100.00;102449.38;10540796;28;20122;-71
2022/12/18 02:04:23;;;;;;;13.55;7.15;;;;;;;-7.81;100.00;102446.56;10540214;28;20110;-70
2022/12/18 02:09:36;;;;;;;13.55;10.13;;;;;;;-7.96;100.00;102442.34;10540532;28;20078;-69
2022/12/18 02:14:48;;;;;;;18.73;7.95;;;;;;;-8.02;100.00;102436.91;10538142;28;20113;-70
2022/12/18 02:20:10;;;;;;;5.70;5.13;;;;;;;-7.69;100.00;102441.34;10539878;28;20551;-73
2022/12/18 02:25:33;;;;;;;10.00;7.07;;;;;;;-7.80;100.00;102438.19;10539768;28;20147;-71
2022/12/18 02:30:40;;;;;;;14.50;7.53;;;;;;;-7.85;100.00;102443.00;10539356;28;20486;-70
2022/12/18 02:35:45;;;;;;;7.18;6.60;;;;;;;-7.95;100.00;102435.59;10539493;28;20074;-71
2022/12/18 02:40:49;;;;;;;9.30;7.18;;;;;;;-8.14;100.00;102434.53;10539421;28;20125;-70
2022/12/18 02:45:56;;;;;;;7.10;6.45;;;;;;;-8.30;100.00;102431.06;10536259;28;20632;-71
2022/12/18 02:51:09;;;;;;;8.80;5.80;;;;;;;-8.29;100.00;102417.59;10538965;28;20133;-71
2022/12/18 02:56:20;;;;;;;7.90;6.20;;;;;;;-8.35;100.00;102412.16;10538325;28;20530;-72
2022/12/18 03:01:34;;;;;;;7.80;7.00;;;;;;;-8.48;100.00;102415.63;10538382;28;20581;-71
2022/12/18 03:06:42;;;;;;;9.63;7.70;;;;;;;-8.66;100.00;102412.81;10539095;28;20094;-70
2022/12/18 03:17:20;;;;;;;6.18;5.60;;;;;;;-8.60;100.00;102395.50;10537715;28;20149;-72
2022/12/18 03:22:25;;;;;;;6.55;5.95;;;;;;;-8.70;100.00;102391.53;10537845;28;20081;-71
2022/12/18 03:27:32;;;;;;;6.68;6.07;;;;;;;-8.62;100.00;102397.06;10537298;28;20105;-71
2022/12/18 03:32:43;;;;;;;11.77;7.80;;;;;;;-8.71;100.00;102399.00;10537723;28;20084;-72
2022/12/18 03:37:45;;;;;;;6.55;5.63;;;;;;;-8.80;100.00;102402.72;10536707;28;20124;-72
2022/12/18 03:42:53;;;;;;;6.65;6.15;;;;;;;-8.62;100.00;102404.66;10534632;28;20145;-72
2022/12/18 03:48:04;;;;;;;6.65;6.00;;;;;;;-8.59;100.00;102402.31;10535827;28;20645;-70
2022/12/18 03:53:20;;;;;;;4.85;4.55;;;;;;;-8.71;100.00;102388.88;10536668;28;20488;-71
2022/12/18 03:58:27;;;;;;;13.30;7.68;;;;;;;-8.76;100.00;102382.69;10536400;28;20173;-71
2022/12/18 04:03:33;;;;;;;7.88;7.15;;;;;;;-8.76;100.00;102362.44;10535900;28;20108;-72
2022/12/18 04:08:36;;;;;;;5.45;5.05;;;;;;;-8.56;100.00;102354.38;10536046;28;20095;-70
2022/12/18 04:13:39;;;;;;;9.23;6.15;;;;;;;-8.54;100.00;102350.31;10534205;28;20518;-70
2022/12/18 04:18:44;;;;;;;6.38;5.55;;;;;;;-8.70;100.00;102353.53;10535845;28;20076;-71
2022/12/18 04:23:46;;;;;;;6.78;6.18;;;;;;;-8.49;100.00;102331.94;10536481;28;20133;-71
2022/12/18 04:28:48;;;;;;;9.77;7.43;;;;;;;-8.55;100.00;102342.63;10536130;28;20143;-71
2022/12/18 04:33:51;;;;;;;5.60;5.13;;;;;;;-8.55;100.00;102348.53;10535535;28;20076;-71
2022/12/18 04:38:52;;;;;;;7.57;6.80;;;;;;;-8.67;100.00;102352.84;10535690;28;20135;-69
2022/12/18 04:43:54;;;;;;;8.50;7.05;;;;;;;-8.74;100.00;102355.78;10532845;28;20135;-70
2022/12/18 04:48:57;;;;;;;11.70;8.35;;;;;;;-8.79;100.00;102369.03;10535208;28;20170;-70
2022/12/18 04:53:59;;;;;;;15.88;8.38;;;;;;;-8.59;100.00;102376.13;10535586;28;20072;-71
2022/12/18 04:59:02;;;;;;;4.55;4.28;;;;;;;-8.42;100.00;102377.13;10535683;28;20081;-70
2022/12/18 05:04:05;;;;;;;6.10;5.63;;;;;;;-8.52;100.00;102383.28;10542466;28;20115;-69
2022/12/18 05:09:08;;;;;;;8.48;6.60;;;;;;;-8.73;100.00;102375.28;10542551;28;20105;-69
2022/12/18 05:14:10;;;;;;;8.15;7.18;;;;;;;-8.86;100.00;102392.22;10540043;28;20076;-71
2022/12/18 05:19:13;;;;;;;7.55;6.80;;;;;;;-9.05;100.00;102388.53;10542635;28;20125;-72
2022/12/18 05:24:15;;;;;;;6.13;5.50;;;;;;;-9.17;100.00;102387.78;10542010;28;20526;-71
2022/12/18 05:29:16;;;;;;;7.00;6.30;;;;;;;-9.09;100.00;102373.06;10541892;28;20161;-71
2022/12/18 05:34:20;;;;;;;8.38;5.82;;;;;;;-8.93;100.00;102368.19;10541717;28;20152;-72
2022/12/18 05:39:23;;;;;;;5.70;5.20;;;;;;;-9.01;100.00;102381.16;10541646;28;20270;-71
2022/12/18 05:44:25;;;;;;;5.10;4.80;;;;;;;-9.03;100.00;102364.97;10539390;28;20080;-71
2022/12/18 05:49:28;;;;;;;10.40;6.32;;;;;;;-8.90;100.00;102361.56;10541235;28;20152;-71
2022/12/18 05:54:30;;;;;;;6.47;5.82;;;;;;;-8.88;100.00;102354.94;10541612;28;20079;-70
2022/12/18 05:59:32;;;;;;;6.38;5.78;;;;;;;-8.81;100.00;102352.00;10540887;28;20083;-69
2022/12/18 06:04:35;;;;;;;6.00;5.57;;;;;;;-8.99;100.00;102349.22;10540707;28;20117;-70
2022/12/18 06:09:37;;;;;;;6.38;5.88;;;;;;;-9.16;100.00;102343.97;10540516;28;20100;-70
2022/12/18 06:14:39;;;;;;;6.35;5.55;;;;;;;-9.06;100.00;102358.94;10537829;28;20086;-71
2022/12/18 06:19:42;;;;;;;5.38;5.00;;;;;;;-9.02;100.00;102359.13;10540259;28;20079;-69
2022/12/18 06:24:44;;;;;;;12.20;4.85;;;;;;;-8.89;100.00;102356.59;10539713;28;20169;-71
2022/12/18 06:29:45;;;;;;;5.88;5.40;;;;;;;-8.92;100.00;102364.00;10540117;28;20097;-71
2022/12/18 06:34:49;;;;;;;7.20;5.75;;;;;;;-9.11;100.00;102357.78;10539514;28;20077;-69
2022/12/18 06:39:50;;;;;;;5.45;5.07;;;;;;;-9.22;100.00;102356.22;10539781;28;20085;-70
2022/12/18 06:44:52;;;;;;;6.68;6.03;;;;;;;-9.34;100.00;102347.06;10536403;28;20134;-71
2022/12/18 06:49:55;;;;;;;6.03;5.45;;;;;;;-9.05;100.00;102343.00;10538976;28;20081;-71
2022/12/18 06:54:57;;;;;;;8.43;6.43;;;;;;;-8.97;100.00;102333.34;10538940;28;20083;-71
2022/12/18 06:59:58;;;;;;;6.93;6.30;;;;;;;-8.95;100.00;102331.81;10536967;28;20540;-70
2022/12/18 07:05:02;;;;;;;6.43;4.95;;;;;;;-8.63;100.00;102334.53;10536716;28;20508;-70
2022/12/18 07:10:05;;;;;;;7.47;5.88;;;;;;;-8.67;100.00;102337.66;10536615;28;20075;-69
2022/12/18 07:15:08;;;;;;;8.93;6.72;;;;;;;-8.53;100.00;102324.16;10534009;28;20076;-69
2022/12/18 07:20:12;;;;;;;7.07;6.38;;;;;;;-8.48;100.00;102314.31;10536223;28;20081;-71
2022/12/18 07:25:13;;;;;;;6.13;5.68;;;;;;;-8.45;100.00;102298.44;10535420;28;20584;-69
2022/12/18 07:30:15;;;;;;;10.57;6.82;;;;;;;-8.42;100.00;102279.22;10536447;28;20072;-70
2022/12/18 07:35:18;;;;;;;7.45;6.10;;;;;;;-8.42;100.00;102283.41;10535601;28;20088;-71
2022/12/18 07:40:21;;;;;;;7.15;6.30;;;;;;;-8.15;100.00;102278.19;10535677;28;20080;-70
2022/12/18 07:45:23;;;;;;;5.22;4.72;;;;;;;-8.12;100.00;102268.25;10533216;28;20089;-70
2022/12/18 07:50:26;;;;;;;7.45;6.38;;;;;;;-8.05;100.00;102255.16;10535586;28;20075;-70
2022/12/18 07:55:28;;;;;;;17.88;7.95;;;;;;;-7.89;100.00;102240.81;10534878;28;20072;-70
2022/12/18 08:00:30;;;;;;;12.48;7.25;;;;;;;-7.73;100.00;102234.06;10535164;28;20163;-69
2022/12/18 08:05:33;;;;;;;6.22;5.82;;;;;;;-7.63;100.00;102249.88;10535813;28;20464;-69
2022/12/18 08:10:35;;;;;;;8.25;7.10;;;;;;;-7.56;100.00;102251.06;10536290;28;20143;-70
2022/12/18 08:15:36;;;;;;;5.10;4.78;;;;;;;-7.54;100.00;102246.97;10533475;28;20069;-70
2022/12/18 08:20:39;;;;;;;12.70;11.38;;;;;;;-7.37;100.00;102247.00;10535571;28;20075;-69
2022/12/18 08:25:41;;;;;;;18.40;14.27;;;;;;;-7.12;100.00;102258.50;10535557;28;20081;-70
2022/12/18 08:30:43;;;;;;;9.20;8.27;;;;;;;-7.09;100.00;102253.56;10535807;28;20078;-70
2022/12/18 08:35:46;;;;;;;14.95;13.75;;;;;;;-6.94;100.00;102255.19;10539904;28;20439;-69
2022/12/18 08:40:48;;;;;;;7.57;6.10;;;;;;;-6.90;100.00;102257.09;10544483;28;20074;-69
2022/12/18 08:45:49;;;;;;;29.40;25.60;;;;;;;-6.83;100.00;102243.94;10541625;28;20216;-72
2022/12/18 08:50:57;;;;;;;11.75;9.95;;;;;;;-6.76;100.00;102223.13;10543648;28;20124;-70
2022/12/18 08:55:58;;;;;;;21.63;11.02;;;;;;;-6.68;100.00;102235.38;10543615;28;20125;-71
2022/12/18 09:01:02;;;;;;;9.70;8.90;;;;;;;-6.55;100.00;102226.69;10542913;28;20685;-70
2022/12/18 09:06:06;;;;;;;6.70;4.95;;;;;;;-6.51;100.00;102221.84;10543355;28;20181;-72
2022/12/18 09:11:15;;;;;;;8.45;6.07;;;;;;;-6.36;100.00;102239.50;10541112;28;20132;-72
2022/12/18 09:16:18;;;;;;;20.13;15.10;;;;;;;-6.27;100.00;102249.28;10535503;28;20541;-70
2022/12/18 09:21:22;;;;;;;7.57;6.88;;;;;;;-6.12;100.00;102259.31;10542315;28;20536;-70
2022/12/18 09:26:26;;;;;;;7.53;5.85;;;;;;;-6.05;100.00;102260.50;10542187;28;20227;-67
2022/12/18 09:31:29;;;;;;;4.55;4.30;;;;;;;-5.96;100.00;102240.56;10542041;28;20133;-67
2022/12/18 09:36:32;;;;;;;8.15;7.47;;;;;;;-5.90;100.00;102227.28;10541780;28;20064;-67
2022/12/18 09:41:45;;;;;;;8.23;5.53;;;;;;;-5.79;100.00;102222.72;10539485;28;20080;-68
2022/12/18 09:46:55;;;;;;;7.63;7.07;;;;;;;-5.71;100.00;102228.19;10540376;28;20088;-69
2022/12/18 09:52:09;;;;;;;7.50;6.70;;;;;;;-5.53;100.00;102215.44;10541680;28;20062;-68
2022/12/18 09:57:16;;;;;;;8.52;7.70;;;;;;;-5.36;100.00;102189.88;10541013;28;20073;-68
2022/12/18 10:02:22;;;;;;;19.38;9.10;;;;;;;-5.15;100.00;102206.94;10541094;28;20104;-68
2022/12/18 10:07:37;;;;;;;8.35;7.03;;;;;;;-5.24;100.00;102200.63;10540955;28;20088;-70
2022/12/18 10:12:51;;;;;;;12.20;9.27;;;;;;;-4.99;100.00;102204.28;10510913;28;20118;-70
2022/12/18 10:18:15;;;;;;;9.43;6.75;;;;;;;-4.91;100.00;102208.03;10538303;28;20070;-69
2022/12/18 10:23:29;;;;;;;13.88;10.93;;;;;;;-4.76;100.00;102212.03;10540167;28;20415;-70
2022/12/18 10:28:34;;;;;;;11.68;9.32;;;;;;;-4.72;100.00;102203.72;10540035;28;20083;-69
2022/12/18 10:33:37;;;;;;;7.18;5.70;;;;;;;-4.65;100.00;102190.44;10539935;28;20588;-69
2022/12/18 10:38:41;;;;;;;10.95;9.82;;;;;;;-4.55;100.00;102170.44;10539281;28;20071;-71
2022/12/18 10:43:42;;;;;;;9.73;6.50;;;;;;;-4.38;100.00;102155.81;10536840;28;20070;-72
2022/12/18 10:48:55;;;;;;;18.02;5.70;;;;;;;-4.33;100.00;102150.94;10539392;28;20097;-70
2022/12/18 10:54:03;;;;;;;9.32;5.82;;;;;;;-4.30;100.00;102151.06;10538212;28;20076;-69
2022/12/18 10:59:07;;;;;;;8.65;6.40;;;;;;;-4.15;100.00;102135.50;10500749;28;20128;-70
2022/12/18 11:04:10;;;;;;;11.43;5.88;;;;;;;-4.08;100.00;102121.31;10501895;28;20148;-72
2022/12/18 11:09:23;;;;;;;14.23;12.43;;;;;;;-3.94;100.00;102120.16;10531797;28;20088;-71
2022/12/18 11:14:31;;;;;;;13.35;10.05;;;;;;;-3.90;100.00;102132.22;10495734;28;20072;-70
2022/12/18 11:19:36;;;;;;;15.23;10.23;;;;;;;-3.81;100.00;102135.94;10531110;28;20073;-70
2022/12/18 11:24:41;;;;;;;7.10;6.30;;;;;;;-3.75;100.00;102124.28;10537579;28;20123;-69
2022/12/18 11:29:43;;;;;;;10.48;8.25;;;;;;;-3.67;100.00;102104.16;10533933;28;20083;-70
2022/12/18 11:34:53;;;;;;;9.93;7.30;;;;;;;-3.68;100.00;102102.41;10536607;28;20074;-70
2022/12/18 11:40:02;;;;;;;9.30;6.50;;;;;;;-3.64;100.00;102111.94;10536658;28;20440;-71
2022/12/18 11:45:25;;;;;;;6.82;6.22;;;;;;;-3.40;100.00;102095.75;10535369;28;20073;-70
2022/12/18 11:50:44;;;;;;;14.35;9.55;;;;;;;-3.34;100.00;102096.78;10536470;28;20571;-70
2022/12/18 11:56:25;;;;;;;6.82;6.13;;;;;;;-3.25;100.00;102090.31;10536100;28;20443;-69
2022/12/18 12:01:47;;;;;;;7.82;6.43;;;;;;;-3.21;100.00;102081.09;10535851;28;20260;-70
2022/12/18 12:07:03;;;;;;;7.22;5.85;;;;;;;-3.24;100.00;102081.00;10535375;28;20227;-72
2022/12/18 12:12:28;;;;;;;5.45;5.03;;;;;;;-3.15;100.00;102063.41;10533013;28;20098;-70
2022/12/18 12:17:43;;;;;;;9.02;5.63;;;;;;;-3.18;100.00;102053.09;10535910;28;20067;-70
2022/12/18 12:22:57;;;;;;;13.07;9.60;;;;;;;-2.96;100.00;102053.81;10535134;28;20531;-69
2022/12/18 12:28:19;;;;;;;9.82;7.88;;;;;;;-2.98;100.00;102050.34;10535801;28;20086;-69
2022/12/18 12:33:37;;;;;;;8.75;6.65;;;;;;;-2.92;100.00;102029.25;10535444;28;20431;-69
2022/12/18 12:38:46;;;;;;;7.60;6.90;;;;;;;-2.82;100.00;102030.41;10536456;28;20070;-68
2022/12/18 12:43:50;;;;;;;12.20;8.05;;;;;;;-2.82;100.00;102012.53;10533002;28;20551;-68
2022/12/18 12:48:56;;;;;;;8.48;7.20;;;;;;;-2.77;100.00;102003.34;10529271;28;20082;-71
2022/12/18 12:54:02;;;;;;;9.18;7.50;;;;;;;-2.77;100.00;101995.66;10530844;28;20138;-69
2022/12/18 12:59:18;;;;;;;7.00;6.40;;;;;;;-2.73;100.00;101992.38;10535748;28;20174;-70
2022/12/18 13:04:46;;;;;;;7.30;5.38;;;;;;;-2.73;100.00;101989.84;10536208;28;20139;-68
2022/12/18 13:10:27;;;;;;;6.82;5.05;;;;;;;-2.65;100.00;101978.16;10535335;28;20136;-69
2022/12/18 13:15:38;;;;;;;7.85;7.05;;;;;;;-2.55;100.00;101968.19;10532296;28;20472;-69
2022/12/18 13:20:43;;;;;;;4.72;4.32;;;;;;;-2.64;100.00;101961.16;10535200;28;20063;-68
2022/12/18 13:25:45;;;;;;;12.40;7.60;;;;;;;-2.56;100.00;101959.69;10543215;28;20066;-67
2022/12/18 13:30:53;;;;;;;5.47;4.80;;;;;;;-2.49;100.00;101973.50;10542004;28;20604;-67
2022/12/18 13:36:09;;;;;;;12.38;8.48;;;;;;;-2.48;100.00;101970.13;10542316;28;20064;-68
2022/12/18 13:41:28;;;;;;;10.02;8.43;;;;;;;-2.42;100.00;101969.44;10540537;28;20464;-69
2022/12/18 13:46:45;;;;;;;6.28;5.32;;;;;;;-2.42;100.00;101961.78;10539837;28;20427;-69
2022/12/18 13:51:51;;;;;;;14.27;10.00;;;;;;;-2.35;100.00;101945.78;10541213;28;20065;-68
2022/12/18 13:56:53;;;;;;;14.15;7.80;;;;;;;-2.36;100.00;101938.94;10540850;28;20122;-67
2022/12/18 14:01:58;;;;;;;4.07;3.83;;;;;;;-2.35;100.00;101944.13;10540902;28;20398;-69
2022/12/18 14:07:06;;;;;;;6.28;5.55;;;;;;;-2.30;100.00;101948.50;10540979;28;20092;-67
2022/12/18 14:17:38;;;;;;;11.20;8.40;;;;;;;-2.25;100.00;101939.25;10540572;28;20062;-69
2022/12/18 14:22:46;;;;;;;9.15;7.65;;;;;;;-2.20;100.00;101941.13;10540182;28;20068;-67
2022/12/18 14:27:52;;;;;;;12.60;7.00;;;;;;;-2.22;100.00;101936.78;10539750;28;20144;-68
2022/12/18 14:33:11;;;;;;;9.23;6.95;;;;;;;-2.15;100.00;101927.59;10539899;28;20070;-67
2022/12/18 14:38:24;;;;;;;9.30;7.70;;;;;;;-2.16;100.00;101930.97;10539168;28;20067;-66
2022/12/18 14:43:28;;;;;;;17.33;5.88;;;;;;;-2.10;100.00;101937.13;10536947;28;20074;-67
2022/12/18 14:48:40;;;;;;;8.52;6.88;;;;;;;-2.10;100.00;101923.47;10539024;28;20086;-67
2022/12/18 14:53:45;;;;;;;13.68;8.27;;;;;;;-2.13;100.00;101931.91;10539149;28;20211;-68
2022/12/18 14:58:50;;;;;;;10.10;6.90;;;;;;;-2.10;100.00;101937.13;10538535;28;20121;-68
2022/12/18 15:03:56;;;;;;;8.02;7.22;;;;;;;-2.10;100.00;101933.69;10537964;28;20151;-67
2022/12/18 15:09:00;;;;;;;11.23;9.00;;;;;;;-2.11;100.00;101925.16;10537867;28;20083;-68
2022/12/18 15:14:32;;;;;;;10.73;7.50;;;;;;;-2.13;100.00;101919.13;10535637;28;20065;-67
2022/12/18 15:19:41;;;;;;;6.72;5.95;;;;;;;-2.15;100.00;101909.69;10537709;28;20072;-67
2022/12/18 15:24:42;;;;;;;7.10;6.50;;;;;;;-2.17;100.00;101909.63;10537802;28;20122;-67
2022/12/18 15:29:59;;;;;;;16.05;9.85;;;;;;;-2.09;100.00;101900.47;10537240;28;20171;-69
2022/12/18 15:35:16;;;;;;;12.73;8.27;;;;;;;-2.08;100.00;101898.78;10536861;28;20517;-67
2022/12/18 15:40:21;;;;;;;6.90;5.22;;;;;;;-2.09;100.00;101897.91;10537693;28;20116;-65
2022/12/18 15:45:23;;;;;;;8.68;6.45;;;;;;;-2.05;100.00;101892.91;10534061;28;20067;-66
2022/12/18 15:50:26;;;;;;;12.13;8.43;;;;;;;-2.02;100.00;101885.31;10537126;28;20088;-67
2022/12/18 16:00:48;;;;;;;9.50;6.60;;;;;;;-2.05;100.00;101867.31;10536609;28;20084;-67
2022/12/18 16:05:51;;;;;;;12.05;7.05;;;;;;;-1.98;100.00;101871.78;10536634;28;20103;-68
2022/12/18 16:10:54;;;;;;;12.50;8.73;;;;;;;-2.01;100.00;101871.69;10536577;28;20082;-68
2022/12/18 16:15:56;;;;;;;;;;;;;;;-1.94;100.00;101881.25;10534293;28;20097;-66
2022/12/18 16:21:00;;;;;;;12.93;8.15;;;;;;;-1.92;100.00;101860.81;10535665;28;19941;-68
2022/12/18 16:26:04;;;;;;;7.13;5.68;;;;;;;-1.96;100.00;101841.94;10535670;28;20136;-68
2022/12/18 16:31:06;;;;;;;7.20;6.15;;;;;;;-1.91;100.00;101830.16;10535909;28;20111;-67
2022/12/18 16:36:09;;;;;;;10.60;7.05;;;;;;;-1.87;100.00;101837.09;10532708;28;20741;-68
2022/12/18 16:41:31;;;;;;;7.68;6.93;;;;;;;-1.88;100.00;101825.09;10532561;28;20069;-68
2022/12/18 16:46:33;;;;;;;15.98;11.52;;;;;;;-1.86;100.00;101820.03;10536450;28;20065;-67
2022/12/18 16:51:36;;;;;;;14.50;9.45;;;;;;;-1.92;100.00;101813.06;10535628;28;20077;-68
2022/12/18 16:56:38;;;;;;;11.10;8.73;;;;;;;-1.90;100.00;101808.84;10537840;28;20068;-68
2022/12/18 17:01:40;;;;;;;7.75;5.90;;;;;;;-1.88;100.00;101804.63;10541843;28;20092;-67
2022/12/18 17:06:50;;;;;;;15.07;8.65;;;;;;;-1.89;100.00;101808.03;10541654;28;20120;-68
2022/12/18 17:11:54;;;;;;;14.20;7.55;;;;;;;-1.81;100.00;101801.41;10538833;28;20082;-67
2022/12/18 17:16:56;;;;;;;18.83;10.18;;;;;;;-1.82;100.00;101799.69;10541348;28;20311;-67
2022/12/18 17:21:59;;;;;;;15.20;8.70;;;;;;;-1.78;100.00;101805.72;10540708;28;20437;-68
2022/12/18 17:27:01;;;;;;;11.00;7.30;;;;;;;-1.78;100.00;101815.13;10540725;28;20068;-68
2022/12/18 17:32:03;;;;;;;5.60;3.90;;;;;;;-1.81;100.00;101810.78;10541021;28;20462;-68
2022/12/18 17:37:06;;;;;;;11.98;8.73;;;;;;;-1.77;100.00;101806.59;10541143;28;20067;-68
2022/12/18 17:42:09;;;;;;;15.77;10.95;;;;;;;-1.72;100.00;101823.81;10537669;28;20131;-67
2022/12/18 17:47:12;;;;;;;13.02;8.98;;;;;;;-1.66;100.00;101810.28;10540539;28;20061;-68
2022/12/18 17:52:15;;;;;;;17.75;10.57;;;;;;;-1.61;100.00;101818.94;10537345;28;20111;-68
2022/12/18 17:57:18;;;;;;;16.85;9.00;;;;;;;-1.53;100.00;101818.25;10517275;28;20427;-67
2022/12/18 18:02:20;;;;;;;14.98;9.00;;;;;;;-1.56;100.00;101811.38;10515340;28;20097;-67
2022/12/18 18:07:23;;;;;;;12.37;9.17;;;;;;;-1.50;100.00;101814.09;10541224;28;20068;-67
2022/12/18 18:17:44;;;;;;;17.50;10.82;;;;;;;-1.53;100.00;101813.13;10540630;28;20060;-67
2022/12/18 18:22:47;;;;;;;12.80;8.30;;;;;;;-1.54;100.00;101799.44;10539770;28;20127;-66
2022/12/18 18:27:49;;;;;;;7.53;6.13;;;;;;;-1.57;100.00;101790.00;10539648;28;20599;-66
2022/12/18 18:32:51;;;;;;;12.80;9.27;;;;;;;-1.51;100.00;101799.53;10539489;28;20446;-67
2022/12/18 18:37:55;;;;;;;14.55;9.15;;;;;;;-1.50;100.00;101800.41;10539381;28;20116;-67
2022/12/18 18:42:57;;;;;;;6.60;5.40;;;;;;;-1.49;100.00;101794.44;10536681;28;20117;-70
2022/12/18 18:48:00;;;;;;;11.20;7.57;;;;;;;-1.47;100.00;101796.22;10539118;28;20092;-68
2022/12/18 18:53:03;;;;;;;13.85;9.30;;;;;;;-1.39;100.00;101798.97;10538633;28;20404;-69
2022/12/18 18:58:05;;;;;;;16.70;10.23;;;;;;;-1.32;100.00;101805.09;10537508;28;20132;-67
2022/12/18 19:03:07;;;;;;;11.23;8.03;;;;;;;-1.28;100.00;101808.56;10536673;28;20099;-68
2022/12/18 19:08:10;;;;;;;9.38;6.88;;;;;;;-1.30;100.00;101799.16;10536552;28;20703;-67
2022/12/18 19:13:23;;;;;;;20.25;10.43;;;;;;;-1.25;100.00;101795.84;10533965;28;20551;-68
2022/12/18 19:18:26;;;;;;;14.02;8.40;;;;;;;-1.26;100.00;101792.44;10535621;28;20114;-66
2022/12/18 19:23:31;;;;;;;12.02;7.30;;;;;;;-1.26;100.00;101794.13;10536414;28;20074;-67
2022/12/18 19:28:35;;;;;;;13.63;10.00;;;;;;;-1.27;100.00;101807.75;10536006;28;20085;-68
2022/12/18 19:33:39;;;;;;;15.20;11.07;;;;;;;-1.33;100.00;101808.47;10535589;28;20105;-69
2022/12/18 19:38:43;;;;;;;18.30;12.13;;;;;;;-1.42;100.00;101809.13;10535714;28;20069;-69
2022/12/18 19:43:45;;;;;;;7.72;6.32;;;;;;;-1.42;100.00;101801.44;10533810;28;20118;-68
2022/12/18 19:48:49;;;;;;;15.93;10.45;;;;;;;-1.44;100.00;101800.53;10535162;28;20135;-68
2022/12/18 19:53:54;;;;;;;12.45;8.93;;;;;;;-1.47;100.00;101805.59;10535052;28;20068;-67
2022/12/18 19:58:56;;;;;;;14.90;10.18;;;;;;;-1.47;100.00;101803.03;10534794;28;20071;-67
2022/12/18 20:03:58;;;;;;;;;;;;;;;-1.41;100.00;101807.44;10535614;28;20096;-69
2022/12/18 20:09:06;;;;;;;10.10;9.10;;;;;;;-1.49;100.00;101803.00;10535176;28;19962;-67
2022/12/18 20:14:08;;;;;;;19.75;11.73;;;;;;;-1.48;100.00;101803.84;10531968;28;20060;-66
2022/12/18 20:19:12;;;;;;;20.83;11.35;;;;;;;-1.49;100.00;101792.75;10534994;28;20112;-70
2022/12/18 20:24:15;;;;;;;14.15;8.00;;;;;;;-1.51;100.00;101799.53;10534508;28;20591;-67
2022/12/18 20:29:17;;;;;;;18.88;9.68;;;;;;;-1.49;100.00;101792.75;10534787;28;20352;-66
2022/12/18 20:34:19;;;;;;;13.50;10.15;;;;;;;-1.47;100.00;101800.50;10543458;28;20117;-69
2022/12/18 20:39:23;;;;;;;19.35;10.30;;;;;;;-1.44;100.00;101805.66;10544474;28;20065;-69
2022/12/18 20:44:25;;;;;;;17.75;11.50;;;;;;;-1.45;100.00;101788.56;10541517;28;20160;-68
2022/12/18 20:49:29;;;;;;;12.48;10.48;;;;;;;-1.46;100.00;101782.59;10544596;28;20077;-69
2022/12/18 20:54:32;;;;;;;7.70;6.82;;;;;;;-1.44;100.00;101774.94;10543940;28;20070;-68
2022/12/18 20:59:34;;;;;;;11.43;8.18;;;;;;;-1.45;100.00;101778.31;10542653;28;20073;-69
2022/12/18 21:04:36;;;;;;;19.35;11.13;;;;;;;-1.43;100.00;101766.44;10542632;28;20143;-69
2022/12/18 21:09:41;;;;;;;13.50;10.07;;;;;;;-1.42;100.00;101757.91;10542801;28;20088;-71
2022/12/18 21:14:44;;;;;;;13.48;9.95;;;;;;;-1.44;100.00;101754.44;10541993;28;20500;-70
2022/12/18 21:19:45;;;;;;;9.55;7.70;;;;;;;-1.41;100.00;101749.38;10543149;28;20061;-68
2022/12/18 21:24:49;;;;;;;26.27;10.83;;;;;;;-1.38;100.00;101739.22;10541921;28;20123;-69
2022/12/18 21:29:51;;;;;;;16.08;11.35;;;;;;;-1.37;100.00;101738.38;10542423;28;20343;-71
2022/12/18 21:34:53;;;;;;;7.13;6.47;;;;;;;-1.30;100.00;101732.56;10542196;28;20072;-69
2022/12/18 21:39:56;;;;;;;20.55;13.60;;;;;;;-1.26;100.00;101722.38;10541862;28;20116;-70
2022/12/18 21:44:57;;;;;;;11.68;10.60;;;;;;;-1.25;100.00;101711.31;10537984;28;20568;-71
2022/12/18 21:49:59;;;;;;;7.90;6.03;;;;;;;-1.25;100.00;101708.75;10541543;28;20554;-71
2022/12/18 21:55:04;;;;;;;37.70;33.87;;;;;;;-1.21;100.00;101707.97;10541924;28;20065;-72
2022/12/18 22:00:11;;;;;;;12.95;9.35;;;;;;;-1.20;100.00;101707.16;10541095;28;20390;-68
2022/12/18 22:05:12;;;;;;;13.48;10.88;;;;;;;-1.09;100.00;101689.44;10540757;28;20472;-71
2022/12/18 22:10:16;;;;;;;12.87;10.13;;;;;;;-1.11;100.00;101683.41;10540991;28;20080;-72
2022/12/18 22:15:17;;;;;;;9.05;5.85;;;;;;;-1.09;100.00;101664.66;10538372;28;20138;-72
2022/12/18 22:20:19;;;;;;;14.52;9.88;;;;;;;-1.02;100.00;101660.53;10540453;28;20071;-70
2022/12/18 22:25:22;;;;;;;21.50;12.35;;;;;;;-1.00;100.00;101645.19;10540298;28;20069;-70
2022/12/18 22:30:24;;;;;;;24.65;15.68;;;;;;;-0.99;100.00;101634.09;10540229;28;20089;-70
2022/12/18 22:35:26;;;;;;;18.92;14.52;;;;;;;-0.93;100.00;101626.50;10539877;28;20077;-72
2022/12/18 22:40:29;;;;;;;14.38;8.93;;;;;;;-0.91;100.00;101606.91;10539826;28;20116;-70
2022/12/18 22:45:31;;;;;;;9.02;8.23;;;;;;;-0.81;100.00;101593.44;10536986;28;20130;-70
2022/12/18 22:50:33;;;;;;;13.13;9.63;;;;;;;-0.65;100.00;101597.09;10538820;28;20157;-71
2022/12/18 22:55:36;;;;;;;22.52;14.07;;;;;;;-0.53;100.00;101598.13;10539139;28;20302;-72
2022/12/18 23:00:38;;;;;;;17.60;12.65;;;;;;;-0.54;100.00;101596.41;10538299;28;20084;-70
2022/12/18 23:05:39;;;;;;;28.08;15.55;;;;;;;-0.53;100.00;101593.88;10538585;28;20074;-71
2022/12/18 23:10:44;;;;;;;13.13;10.98;;;;;;;-0.42;100.00;101595.72;10538112;28;20141;-72
2022/12/18 23:15:46;;;;;;;29.17;17.60;;;;;;;-0.33;100.00;101583.06;10536377;28;20065;-71
2022/12/18 23:20:48;;;;;;;20.20;18.02;;;;;;;-0.23;100.00;101565.22;10538157;28;20065;-71